sensor_id;sensor_type;location;lat;lon;timestamp;temperature;humidity
8332;DHT22;4203;48.144;14.118;2023-11-21T00:00:42;4.00;99.90
8332;DHT22;4203;48.144;14.118;2023-11-21T00:03:12;4.10;99.90
8332;DHT22;4203;48.144;14.118;2023-11-21T00:05:40;4.10;99.90
8332;DHT22;4203;48.144;14.118;2023-11-21T00:08:08;4.10;99.90
8332;DHT22;4203;48.144;14.118;2023-11-21T00:10:36;4.10;99.90
8332;DHT22;4203;48.144;14.118;2023-11-21T00:13:05;4.20;99.90
8332;DHT22;4203;48.144;14.118;2023-11-21T00:15:33;4.20;99.90
8332;DHT22;4203;48.144;14.118;2023-11-21T00:18:00;4.20;99.90
8332;DHT22;4203;48.144;14.118;2023-11-21T00:20:27;4.20;99.90
8332;DHT22;4203;48.144;14.118;2023-11-21T00:22:55;4.20;99.90
8332;DHT22;4203;48.144;14.118;2023-11-21T00:25:22;4.30;99.90
8332;DHT22;4203;48.144;14.118;2023-11-21T00:27:50;4.30;99.90
8332;DHT22;4203;48.144;14.118;2023-11-21T00:30:19;4.30;99.90
8332;DHT22;4203;48.144;14.118;2023-11-21T00:32:49;4.30;99.90
8332;DHT22;4203;48.144;14.118;2023-11-21T00:35:16;4.40;99.90
8332;DHT22;4203;48.144;14.118;2023-11-21T00:37:43;4.30;99.90
8332;DHT22;4203;48.144;14.118;2023-11-21T00:40:11;4.30;99.90
8332;DHT22;4203;48.144;14.118;2023-11-21T00:42:41;4.30;99.90
8332;DHT22;4203;48.144;14.118;2023-11-21T00:45:09;4.20;99.90
8332;DHT22;4203;48.144;14.118;2023-11-21T00:47:38;4.20;99.90
8332;DHT22;4203;48.144;14.118;2023-11-21T00:50:06;4.10;99.90
8332;DHT22;4203;48.144;14.118;2023-11-21T00:52:33;4.20;99.90
8332;DHT22;4203;48.144;14.118;2023-11-21T00:55:01;4.10;99.90
8332;DHT22;4203;48.144;14.118;2023-11-21T00:57:29;4.00;99.90
8332;DHT22;4203;48.144;14.118;2023-11-21T00:59:56;4.00;99.90
8332;DHT22;4203;48.144;14.118;2023-11-21T01:02:23;3.90;99.90
8332;DHT22;4203;48.144;14.118;2023-11-21T01:04:52;3.80;99.90
8332;DHT22;4203;48.144;14.118;2023-11-21T01:07:19;3.80;99.90
8332;DHT22;4203;48.144;14.118;2023-11-21T01:09:48;3.80;99.90
8332;DHT22;4203;48.144;14.118;2023-11-21T01:12:15;3.70;99.90
8332;DHT22;4203;48.144;14.118;2023-11-21T01:14:43;3.70;99.90
8332;DHT22;4203;48.144;14.118;2023-11-21T01:17:10;3.70;99.90
8332;DHT22;4203;48.144;14.118;2023-11-21T01:19:38;3.70;99.90
8332;DHT22;4203;48.144;14.118;2023-11-21T01:22:07;3.70;99.90
8332;DHT22;4203;48.144;14.118;2023-11-21T01:24:35;3.70;99.90
8332;DHT22;4203;48.144;14.118;2023-11-21T01:27:09;3.70;99.90
8332;DHT22;4203;48.144;14.118;2023-11-21T01:29:36;3.70;99.90
8332;DHT22;4203;48.144;14.118;2023-11-21T01:32:04;3.70;99.90
8332;DHT22;4203;48.144;14.118;2023-11-21T01:34:33;3.60;99.90
8332;DHT22;4203;48.144;14.118;2023-11-21T01:37:01;3.60;99.90
8332;DHT22;4203;48.144;14.118;2023-11-21T01:39:31;3.60;99.90
8332;DHT22;4203;48.144;14.118;2023-11-21T01:41:59;3.50;99.90
8332;DHT22;4203;48.144;14.118;2023-11-21T01:44:45;3.40;99.90
8332;DHT22;4203;48.144;14.118;2023-11-21T01:47:13;3.40;99.90
8332;DHT22;4203;48.144;14.118;2023-11-21T01:49:44;3.40;99.90
8332;DHT22;4203;48.144;14.118;2023-11-21T01:52:12;3.30;99.90
8332;DHT22;4203;48.144;14.118;2023-11-21T01:54:41;3.30;99.90
8332;DHT22;4203;48.144;14.118;2023-11-21T01:57:09;3.30;99.90
8332;DHT22;4203;48.144;14.118;2023-11-21T01:59:37;3.20;99.90
8332;DHT22;4203;48.144;14.118;2023-11-21T02:02:05;3.20;99.90
8332;DHT22;4203;48.144;14.118;2023-11-21T02:04:33;3.10;99.90
8332;DHT22;4203;48.144;14.118;2023-11-21T02:07:02;3.10;99.90
8332;DHT22;4203;48.144;14.118;2023-11-21T02:09:31;3.10;99.90
8332;DHT22;4203;48.144;14.118;2023-11-21T02:12:00;3.00;99.90
8332;DHT22;4203;48.144;14.118;2023-11-21T02:14:30;3.00;99.90
8332;DHT22;4203;48.144;14.118;2023-11-21T02:16:59;3.00;99.90
8332;DHT22;4203;48.144;14.118;2023-11-21T02:19:26;2.90;99.90
8332;DHT22;4203;48.144;14.118;2023-11-21T02:21:57;2.90;99.90
8332;DHT22;4203;48.144;14.118;2023-11-21T02:24:30;2.90;99.90
8332;DHT22;4203;48.144;14.118;2023-11-21T02:26:58;2.90;99.90
8332;DHT22;4203;48.144;14.118;2023-11-21T02:29:25;2.90;99.90
8332;DHT22;4203;48.144;14.118;2023-11-21T02:31:54;2.90;99.90
8332;DHT22;4203;48.144;14.118;2023-11-21T02:34:22;2.80;99.90
8332;DHT22;4203;48.144;14.118;2023-11-21T02:36:50;2.90;99.90
8332;DHT22;4203;48.144;14.118;2023-11-21T02:39:18;2.90;99.90
8332;DHT22;4203;48.144;14.118;2023-11-21T02:41:49;3.00;99.90
8332;DHT22;4203;48.144;14.118;2023-11-21T02:44:19;3.00;99.90
8332;DHT22;4203;48.144;14.118;2023-11-21T02:46:46;3.00;99.90
8332;DHT22;4203;48.144;14.118;2023-11-21T02:49:13;3.10;99.90
8332;DHT22;4203;48.144;14.118;2023-11-21T02:51:40;3.30;99.90
8332;DHT22;4203;48.144;14.118;2023-11-21T02:54:08;3.30;99.90
8332;DHT22;4203;48.144;14.118;2023-11-21T02:56:36;3.40;99.90
8332;DHT22;4203;48.144;14.118;2023-11-21T02:59:04;3.40;99.90
8332;DHT22;4203;48.144;14.118;2023-11-21T03:01:31;3.50;99.90
8332;DHT22;4203;48.144;14.118;2023-11-21T03:04:00;3.50;99.90
8332;DHT22;4203;48.144;14.118;2023-11-21T03:06:27;3.60;99.90
8332;DHT22;4203;48.144;14.118;2023-11-21T03:08:54;3.70;99.90
8332;DHT22;4203;48.144;14.118;2023-11-21T03:11:21;3.70;99.90
8332;DHT22;4203;48.144;14.118;2023-11-21T03:13:49;3.70;99.90
8332;DHT22;4203;48.144;14.118;2023-11-21T03:16:18;3.70;99.90
8332;DHT22;4203;48.144;14.118;2023-11-21T03:18:46;3.80;99.90
8332;DHT22;4203;48.144;14.118;2023-11-21T03:21:13;3.80;99.90
8332;DHT22;4203;48.144;14.118;2023-11-21T03:23:40;3.90;99.90
8332;DHT22;4203;48.144;14.118;2023-11-21T03:26:12;4.00;99.90
8332;DHT22;4203;48.144;14.118;2023-11-21T03:28:39;4.00;99.90
8332;DHT22;4203;48.144;14.118;2023-11-21T03:33:36;4.10;99.90
8332;DHT22;4203;48.144;14.118;2023-11-21T03:36:03;4.10;99.90
8332;DHT22;4203;48.144;14.118;2023-11-21T03:38:30;4.20;99.90
8332;DHT22;4203;48.144;14.118;2023-11-21T03:40:58;4.20;99.90
8332;DHT22;4203;48.144;14.118;2023-11-21T03:43:26;4.20;99.90
8332;DHT22;4203;48.144;14.118;2023-11-21T03:45:53;4.30;99.90
8332;DHT22;4203;48.144;14.118;2023-11-21T03:48:20;4.30;99.90
8332;DHT22;4203;48.144;14.118;2023-11-21T03:50:50;4.40;99.90
8332;DHT22;4203;48.144;14.118;2023-11-21T03:53:17;4.40;99.90
8332;DHT22;4203;48.144;14.118;2023-11-21T03:55:44;4.50;99.90
8332;DHT22;4203;48.144;14.118;2023-11-21T03:58:11;4.50;99.90
8332;DHT22;4203;48.144;14.118;2023-11-21T04:00:39;4.60;99.90
8332;DHT22;4203;48.144;14.118;2023-11-21T04:03:08;4.60;99.90
8332;DHT22;4203;48.144;14.118;2023-11-21T04:05:35;4.60;99.90
8332;DHT22;4203;48.144;14.118;2023-11-21T04:08:04;4.60;99.90
8332;DHT22;4203;48.144;14.118;2023-11-21T04:10:31;4.60;99.90
8332;DHT22;4203;48.144;14.118;2023-11-21T04:13:00;4.60;99.90
8332;DHT22;4203;48.144;14.118;2023-11-21T04:15:27;4.60;99.90
8332;DHT22;4203;48.144;14.118;2023-11-21T04:17:54;4.70;99.90
8332;DHT22;4203;48.144;14.118;2023-11-21T04:20:22;4.70;99.90
8332;DHT22;4203;48.144;14.118;2023-11-21T04:22:49;4.70;99.90
8332;DHT22;4203;48.144;14.118;2023-11-21T04:25:18;4.80;99.90
8332;DHT22;4203;48.144;14.118;2023-11-21T04:27:45;4.70;99.90
8332;DHT22;4203;48.144;14.118;2023-11-21T04:30:14;4.80;99.90
8332;DHT22;4203;48.144;14.118;2023-11-21T04:32:41;4.80;99.90
8332;DHT22;4203;48.144;14.118;2023-11-21T04:35:09;4.80;99.90
8332;DHT22;4203;48.144;14.118;2023-11-21T04:37:36;4.80;99.90
8332;DHT22;4203;48.144;14.118;2023-11-21T04:40:04;4.80;99.90
8332;DHT22;4203;48.144;14.118;2023-11-21T04:42:35;4.80;99.90
8332;DHT22;4203;48.144;14.118;2023-11-21T04:45:03;4.80;99.90
8332;DHT22;4203;48.144;14.118;2023-11-21T04:47:34;4.90;99.90
8332;DHT22;4203;48.144;14.118;2023-11-21T04:50:02;4.80;99.90
8332;DHT22;4203;48.144;14.118;2023-11-21T04:52:31;4.80;99.90
8332;DHT22;4203;48.144;14.118;2023-11-21T04:55:03;4.80;99.90
8332;DHT22;4203;48.144;14.118;2023-11-21T04:57:36;4.80;99.90
8332;DHT22;4203;48.144;14.118;2023-11-21T05:00:04;4.80;99.90
8332;DHT22;4203;48.144;14.118;2023-11-21T05:02:32;4.70;99.90
8332;DHT22;4203;48.144;14.118;2023-11-21T05:05:01;4.70;99.90
8332;DHT22;4203;48.144;14.118;2023-11-21T05:07:28;4.70;99.90
8332;DHT22;4203;48.144;14.118;2023-11-21T05:09:55;4.60;99.90
8332;DHT22;4203;48.144;14.118;2023-11-21T05:12:23;4.60;99.90
8332;DHT22;4203;48.144;14.118;2023-11-21T05:14:52;4.70;99.90
8332;DHT22;4203;48.144;14.118;2023-11-21T05:17:20;4.70;99.90
8332;DHT22;4203;48.144;14.118;2023-11-21T05:19:48;4.70;99.90
8332;DHT22;4203;48.144;14.118;2023-11-21T05:22:15;4.70;99.90
8332;DHT22;4203;48.144;14.118;2023-11-21T05:24:42;4.80;99.90
8332;DHT22;4203;48.144;14.118;2023-11-21T05:27:09;4.80;99.90
8332;DHT22;4203;48.144;14.118;2023-11-21T05:29:38;4.90;99.90
8332;DHT22;4203;48.144;14.118;2023-11-21T05:32:07;4.80;99.90
8332;DHT22;4203;48.144;14.118;2023-11-21T05:34:34;4.80;99.90
8332;DHT22;4203;48.144;14.118;2023-11-21T05:37:02;4.90;99.90
8332;DHT22;4203;48.144;14.118;2023-11-21T05:39:30;4.90;99.90
8332;DHT22;4203;48.144;14.118;2023-11-21T05:41:59;4.90;99.90
8332;DHT22;4203;48.144;14.118;2023-11-21T05:44:29;4.90;99.90
8332;DHT22;4203;48.144;14.118;2023-11-21T05:46:56;4.90;99.90
8332;DHT22;4203;48.144;14.118;2023-11-21T05:49:26;5.00;99.90
8332;DHT22;4203;48.144;14.118;2023-11-21T05:51:56;5.00;99.90
8332;DHT22;4203;48.144;14.118;2023-11-21T05:54:23;5.00;99.90
8332;DHT22;4203;48.144;14.118;2023-11-21T05:56:50;5.00;99.90
8332;DHT22;4203;48.144;14.118;2023-11-21T05:59:18;5.00;99.90
8332;DHT22;4203;48.144;14.118;2023-11-21T06:01:46;5.00;99.90
8332;DHT22;4203;48.144;14.118;2023-11-21T06:04:13;5.00;99.90
8332;DHT22;4203;48.144;14.118;2023-11-21T06:06:42;5.10;99.90
8332;DHT22;4203;48.144;14.118;2023-11-21T06:09:09;5.10;99.90
8332;DHT22;4203;48.144;14.118;2023-11-21T06:11:37;5.10;99.90
8332;DHT22;4203;48.144;14.118;2023-11-21T06:14:05;5.20;99.90
8332;DHT22;4203;48.144;14.118;2023-11-21T06:16:33;5.30;99.90
8332;DHT22;4203;48.144;14.118;2023-11-21T06:19:01;5.20;99.90
8332;DHT22;4203;48.144;14.118;2023-11-21T06:21:28;5.20;99.90
8332;DHT22;4203;48.144;14.118;2023-11-21T06:23:57;5.20;99.90
8332;DHT22;4203;48.144;14.118;2023-11-21T06:26:24;5.20;99.90
8332;DHT22;4203;48.144;14.118;2023-11-21T06:28:51;5.20;99.90
8332;DHT22;4203;48.144;14.118;2023-11-21T06:31:19;5.20;99.90
8332;DHT22;4203;48.144;14.118;2023-11-21T06:33:47;5.30;99.90
8332;DHT22;4203;48.144;14.118;2023-11-21T06:36:15;5.30;99.90
8332;DHT22;4203;48.144;14.118;2023-11-21T06:38:42;5.30;99.90
8332;DHT22;4203;48.144;14.118;2023-11-21T06:41:12;5.30;99.90
8332;DHT22;4203;48.144;14.118;2023-11-21T06:43:41;5.30;99.90
8332;DHT22;4203;48.144;14.118;2023-11-21T06:46:12;5.40;99.90
8332;DHT22;4203;48.144;14.118;2023-11-21T06:48:41;5.40;99.90
8332;DHT22;4203;48.144;14.118;2023-11-21T06:51:09;5.40;99.90
8332;DHT22;4203;48.144;14.118;2023-11-21T06:53:37;5.40;99.90
8332;DHT22;4203;48.144;14.118;2023-11-21T06:56:05;5.40;99.90
8332;DHT22;4203;48.144;14.118;2023-11-21T06:58:34;5.40;99.90
8332;DHT22;4203;48.144;14.118;2023-11-21T07:01:01;5.40;99.90
8332;DHT22;4203;48.144;14.118;2023-11-21T07:03:28;5.50;99.90
8332;DHT22;4203;48.144;14.118;2023-11-21T07:05:55;5.50;99.90
8332;DHT22;4203;48.144;14.118;2023-11-21T07:08:23;5.50;99.90
8332;DHT22;4203;48.144;14.118;2023-11-21T07:10:50;5.50;99.90
8332;DHT22;4203;48.144;14.118;2023-11-21T07:13:18;5.70;99.90
8332;DHT22;4203;48.144;14.118;2023-11-21T07:15:49;5.80;99.90
8332;DHT22;4203;48.144;14.118;2023-11-21T07:18:20;5.90;99.90
8332;DHT22;4203;48.144;14.118;2023-11-21T07:20:57;6.00;99.90
8332;DHT22;4203;48.144;14.118;2023-11-21T07:23:25;6.10;99.90
8332;DHT22;4203;48.144;14.118;2023-11-21T07:25:52;6.20;99.90
8332;DHT22;4203;48.144;14.118;2023-11-21T07:28:19;6.30;99.90
8332;DHT22;4203;48.144;14.118;2023-11-21T07:30:48;6.40;99.90
8332;DHT22;4203;48.144;14.118;2023-11-21T07:33:15;6.40;99.90
8332;DHT22;4203;48.144;14.118;2023-11-21T07:35:43;6.50;99.90
8332;DHT22;4203;48.144;14.118;2023-11-21T07:38:10;6.50;99.90
8332;DHT22;4203;48.144;14.118;2023-11-21T07:40:38;6.60;99.90
8332;DHT22;4203;48.144;14.118;2023-11-21T07:43:06;6.60;99.90
8332;DHT22;4203;48.144;14.118;2023-11-21T07:45:33;6.60;99.90
8332;DHT22;4203;48.144;14.118;2023-11-21T07:48:02;6.70;99.90
8332;DHT22;4203;48.144;14.118;2023-11-21T07:50:30;6.80;99.90
8332;DHT22;4203;48.144;14.118;2023-11-21T07:52:58;6.80;99.90
8332;DHT22;4203;48.144;14.118;2023-11-21T07:55:25;6.90;99.90
8332;DHT22;4203;48.144;14.118;2023-11-21T07:57:52;6.90;99.90
8332;DHT22;4203;48.144;14.118;2023-11-21T08:00:20;7.00;99.90
8332;DHT22;4203;48.144;14.118;2023-11-21T08:02:47;7.10;99.90
8332;DHT22;4203;48.144;14.118;2023-11-21T08:05:16;7.20;99.90
8332;DHT22;4203;48.144;14.118;2023-11-21T08:07:43;7.30;99.90
8332;DHT22;4203;48.144;14.118;2023-11-21T08:10:10;7.30;99.90
8332;DHT22;4203;48.144;14.118;2023-11-21T08:12:38;7.30;99.90
8332;DHT22;4203;48.144;14.118;2023-11-21T08:15:06;7.30;99.90
8332;DHT22;4203;48.144;14.118;2023-11-21T08:17:34;7.40;99.90
8332;DHT22;4203;48.144;14.118;2023-11-21T08:20:02;7.40;99.90
8332;DHT22;4203;48.144;14.118;2023-11-21T08:22:31;7.40;99.90
8332;DHT22;4203;48.144;14.118;2023-11-21T08:24:59;7.50;99.90
8332;DHT22;4203;48.144;14.118;2023-11-21T08:27:26;7.60;99.90
8332;DHT22;4203;48.144;14.118;2023-11-21T08:29:53;7.70;99.90
8332;DHT22;4203;48.144;14.118;2023-11-21T08:32:22;7.70;99.90
8332;DHT22;4203;48.144;14.118;2023-11-21T08:34:49;7.80;99.90
8332;DHT22;4203;48.144;14.118;2023-11-21T08:37:17;7.80;99.90
8332;DHT22;4203;48.144;14.118;2023-11-21T08:39:46;7.80;99.90
8332;DHT22;4203;48.144;14.118;2023-11-21T08:42:14;7.90;99.90
8332;DHT22;4203;48.144;14.118;2023-11-21T08:44:41;8.00;99.90
8332;DHT22;4203;48.144;14.118;2023-11-21T08:47:08;8.20;99.90
8332;DHT22;4203;48.144;14.118;2023-11-21T08:49:35;8.30;99.90
8332;DHT22;4203;48.144;14.118;2023-11-21T08:52:03;8.30;99.90
8332;DHT22;4203;48.144;14.118;2023-11-21T08:54:32;8.40;99.90
8332;DHT22;4203;48.144;14.118;2023-11-21T08:57:01;8.50;99.90
8332;DHT22;4203;48.144;14.118;2023-11-21T08:59:28;8.50;99.90
8332;DHT22;4203;48.144;14.118;2023-11-21T09:01:56;8.60;99.90
8332;DHT22;4203;48.144;14.118;2023-11-21T09:04:23;8.80;99.90
8332;DHT22;4203;48.144;14.118;2023-11-21T09:06:50;8.90;99.90
8332;DHT22;4203;48.144;14.118;2023-11-21T09:09:17;9.10;99.90
8332;DHT22;4203;48.144;14.118;2023-11-21T09:11:45;9.30;99.90
8332;DHT22;4203;48.144;14.118;2023-11-21T09:14:16;9.40;99.90
8332;DHT22;4203;48.144;14.118;2023-11-21T09:16:43;9.50;99.90
8332;DHT22;4203;48.144;14.118;2023-11-21T09:19:11;9.50;99.90
8332;DHT22;4203;48.144;14.118;2023-11-21T09:21:40;9.50;99.90
8332;DHT22;4203;48.144;14.118;2023-11-21T09:24:07;9.50;99.90
8332;DHT22;4203;48.144;14.118;2023-11-21T09:26:35;9.60;99.90
8332;DHT22;4203;48.144;14.118;2023-11-21T09:29:02;9.60;99.90
8332;DHT22;4203;48.144;14.118;2023-11-21T09:31:31;9.50;99.90
8332;DHT22;4203;48.144;14.118;2023-11-21T09:33:59;9.40;99.90
8332;DHT22;4203;48.144;14.118;2023-11-21T09:36:28;9.40;99.90
8332;DHT22;4203;48.144;14.118;2023-11-21T09:39:03;9.30;99.90
8332;DHT22;4203;48.144;14.118;2023-11-21T09:41:46;9.40;99.90
8332;DHT22;4203;48.144;14.118;2023-11-21T09:44:47;9.30;99.90
8332;DHT22;4203;48.144;14.118;2023-11-21T09:47:20;9.20;99.90
8332;DHT22;4203;48.144;14.118;2023-11-21T09:49:49;9.10;99.90
8332;DHT22;4203;48.144;14.118;2023-11-21T09:52:21;9.10;99.90
8332;DHT22;4203;48.144;14.118;2023-11-21T09:54:52;9.00;99.90
8332;DHT22;4203;48.144;14.118;2023-11-21T09:57:25;9.10;99.90
8332;DHT22;4203;48.144;14.118;2023-11-21T09:59:58;9.10;99.90
8332;DHT22;4203;48.144;14.118;2023-11-21T10:02:39;9.10;99.90
8332;DHT22;4203;48.144;14.118;2023-11-21T10:05:07;9.10;99.90
8332;DHT22;4203;48.144;14.118;2023-11-21T10:07:35;9.00;99.90
8332;DHT22;4203;48.144;14.118;2023-11-21T10:10:04;8.90;99.90
8332;DHT22;4203;48.144;14.118;2023-11-21T10:12:32;8.80;99.90
8332;DHT22;4203;48.144;14.118;2023-11-21T10:15:08;8.70;99.90
8332;DHT22;4203;48.144;14.118;2023-11-21T10:17:41;8.60;99.90
8332;DHT22;4203;48.144;14.118;2023-11-21T10:20:16;8.40;99.90
8332;DHT22;4203;48.144;14.118;2023-11-21T10:22:49;8.30;99.90
8332;DHT22;4203;48.144;14.118;2023-11-21T10:25:18;8.20;99.90
8332;DHT22;4203;48.144;14.118;2023-11-21T10:27:48;8.20;99.90
8332;DHT22;4203;48.144;14.118;2023-11-21T10:30:17;8.10;99.90
8332;DHT22;4203;48.144;14.118;2023-11-21T10:32:58;8.00;99.90
8332;DHT22;4203;48.144;14.118;2023-11-21T10:35:39;8.00;99.90
8332;DHT22;4203;48.144;14.118;2023-11-21T10:38:08;8.00;99.90
8332;DHT22;4203;48.144;14.118;2023-11-21T10:40:43;8.00;99.90
8332;DHT22;4203;48.144;14.118;2023-11-21T10:43:18;8.00;99.90
8332;DHT22;4203;48.144;14.118;2023-11-21T10:45:45;7.60;99.90
8332;DHT22;4203;48.144;14.118;2023-11-21T10:48:15;7.90;99.90
8332;DHT22;4203;48.144;14.118;2023-11-21T10:50:43;7.90;99.90
8332;DHT22;4203;48.144;14.118;2023-11-21T10:53:11;7.80;99.90
8332;DHT22;4203;48.144;14.118;2023-11-21T10:55:41;7.80;99.90
8332;DHT22;4203;48.144;14.118;2023-11-21T10:58:23;7.80;99.90
8332;DHT22;4203;48.144;14.118;2023-11-21T11:00:51;7.80;99.90
8332;DHT22;4203;48.144;14.118;2023-11-21T11:03:20;7.90;99.90
8332;DHT22;4203;48.144;14.118;2023-11-21T11:05:49;7.90;99.90
8332;DHT22;4203;48.144;14.118;2023-11-21T11:08:21;8.00;99.90
8332;DHT22;4203;48.144;14.118;2023-11-21T11:10:59;7.90;99.90
8332;DHT22;4203;48.144;14.118;2023-11-21T11:13:28;8.00;99.90
8332;DHT22;4203;48.144;14.118;2023-11-21T11:15:58;7.90;99.90
8332;DHT22;4203;48.144;14.118;2023-11-21T11:18:29;7.90;99.90
8332;DHT22;4203;48.144;14.118;2023-11-21T11:21:07;8.00;99.90
8332;DHT22;4203;48.144;14.118;2023-11-21T11:23:51;8.00;99.90
8332;DHT22;4203;48.144;14.118;2023-11-21T11:26:29;8.10;99.90
8332;DHT22;4203;48.144;14.118;2023-11-21T11:29:05;8.10;99.90
8332;DHT22;4203;48.144;14.118;2023-11-21T11:31:42;8.10;99.90
8332;DHT22;4203;48.144;14.118;2023-11-21T11:34:23;8.10;99.90
8332;DHT22;4203;48.144;14.118;2023-11-21T11:36:59;8.10;99.90
8332;DHT22;4203;48.144;14.118;2023-11-21T11:39:29;8.20;99.90
8332;DHT22;4203;48.144;14.118;2023-11-21T11:41:56;8.20;99.90
8332;DHT22;4203;48.144;14.118;2023-11-21T11:44:47;8.20;99.90
8332;DHT22;4203;48.144;14.118;2023-11-21T11:47:19;8.20;99.90
8332;DHT22;4203;48.144;14.118;2023-11-21T11:50:00;8.20;99.90
8332;DHT22;4203;48.144;14.118;2023-11-21T11:52:39;8.20;99.90
8332;DHT22;4203;48.144;14.118;2023-11-21T11:55:09;8.20;99.90
8332;DHT22;4203;48.144;14.118;2023-11-21T11:57:41;8.20;99.90
8332;DHT22;4203;48.144;14.118;2023-11-21T12:00:11;8.20;99.90
8332;DHT22;4203;48.144;14.118;2023-11-21T12:02:38;8.30;99.90
8332;DHT22;4203;48.144;14.118;2023-11-21T12:05:12;8.20;99.90
8332;DHT22;4203;48.144;14.118;2023-11-21T12:07:47;8.20;99.90
8332;DHT22;4203;48.144;14.118;2023-11-21T12:10:16;8.10;99.90
8332;DHT22;4203;48.144;14.118;2023-11-21T12:12:46;8.20;99.90
8332;DHT22;4203;48.144;14.118;2023-11-21T12:15:14;8.20;99.90
8332;DHT22;4203;48.144;14.118;2023-11-21T12:17:42;8.30;99.90
8332;DHT22;4203;48.144;14.118;2023-11-21T12:20:13;8.40;99.90
8332;DHT22;4203;48.144;14.118;2023-11-21T12:22:45;8.40;99.90
8332;DHT22;4203;48.144;14.118;2023-11-21T12:25:15;8.40;99.90
8332;DHT22;4203;48.144;14.118;2023-11-21T12:27:45;8.40;99.90
8332;DHT22;4203;48.144;14.118;2023-11-21T12:30:16;8.50;99.90
8332;DHT22;4203;48.144;14.118;2023-11-21T12:32:44;8.50;99.90
8332;DHT22;4203;48.144;14.118;2023-11-21T12:35:14;8.50;99.90
8332;DHT22;4203;48.144;14.118;2023-11-21T12:37:45;8.50;99.90
8332;DHT22;4203;48.144;14.118;2023-11-21T12:40:14;8.50;99.90
8332;DHT22;4203;48.144;14.118;2023-11-21T12:42:44;8.60;99.90
8332;DHT22;4203;48.144;14.118;2023-11-21T12:45:19;8.60;99.90
8332;DHT22;4203;48.144;14.118;2023-11-21T12:47:47;8.60;99.90
8332;DHT22;4203;48.144;14.118;2023-11-21T12:50:18;8.70;99.90
8332;DHT22;4203;48.144;14.118;2023-11-21T12:52:50;8.70;99.90
8332;DHT22;4203;48.144;14.118;2023-11-21T12:55:20;8.80;99.90
8332;DHT22;4203;48.144;14.118;2023-11-21T12:57:49;8.80;99.90
8332;DHT22;4203;48.144;14.118;2023-11-21T13:00:18;8.90;99.90
8332;DHT22;4203;48.144;14.118;2023-11-21T13:02:54;8.90;99.90
8332;DHT22;4203;48.144;14.118;2023-11-21T13:05:32;8.90;99.90
8332;DHT22;4203;48.144;14.118;2023-11-21T13:08:01;8.90;99.90
8332;DHT22;4203;48.144;14.118;2023-11-21T13:10:31;8.90;99.90
8332;DHT22;4203;48.144;14.118;2023-11-21T13:13:03;8.90;99.90
8332;DHT22;4203;48.144;14.118;2023-11-21T13:15:34;9.00;99.90
8332;DHT22;4203;48.144;14.118;2023-11-21T13:18:02;9.00;99.90
8332;DHT22;4203;48.144;14.118;2023-11-21T13:20:31;9.00;99.90
8332;DHT22;4203;48.144;14.118;2023-11-21T13:22:58;9.00;99.90
8332;DHT22;4203;48.144;14.118;2023-11-21T13:25:27;9.00;99.90
8332;DHT22;4203;48.144;14.118;2023-11-21T13:27:54;9.00;99.90
8332;DHT22;4203;48.144;14.118;2023-11-21T13:30:22;9.00;99.90
8332;DHT22;4203;48.144;14.118;2023-11-21T13:32:53;9.00;99.90
8332;DHT22;4203;48.144;14.118;2023-11-21T13:35:23;8.90;99.90
8332;DHT22;4203;48.144;14.118;2023-11-21T13:38:04;8.90;99.90
8332;DHT22;4203;48.144;14.118;2023-11-21T13:40:33;8.90;99.90
8332;DHT22;4203;48.144;14.118;2023-11-21T13:43:05;8.80;99.90
8332;DHT22;4203;48.144;14.118;2023-11-21T13:45:35;8.90;99.90
8332;DHT22;4203;48.144;14.118;2023-11-21T13:48:05;8.90;99.90
8332;DHT22;4203;48.144;14.118;2023-11-21T13:50:35;8.80;99.90
8332;DHT22;4203;48.144;14.118;2023-11-21T13:53:04;8.80;99.90
8332;DHT22;4203;48.144;14.118;2023-11-21T13:55:42;8.70;99.90
8332;DHT22;4203;48.144;14.118;2023-11-21T13:58:09;8.70;99.90
8332;DHT22;4203;48.144;14.118;2023-11-21T14:00:50;8.70;99.90
8332;DHT22;4203;48.144;14.118;2023-11-21T14:03:25;8.70;99.90
8332;DHT22;4203;48.144;14.118;2023-11-21T14:06:05;8.70;99.90
8332;DHT22;4203;48.144;14.118;2023-11-21T14:08:41;8.70;99.90
8332;DHT22;4203;48.144;14.118;2023-11-21T14:11:08;8.60;99.90
8332;DHT22;4203;48.144;14.118;2023-11-21T14:13:37;8.60;99.90
8332;DHT22;4203;48.144;14.118;2023-11-21T14:16:11;8.60;99.90
8332;DHT22;4203;48.144;14.118;2023-11-21T14:18:39;8.60;99.90
8332;DHT22;4203;48.144;14.118;2023-11-21T14:21:18;8.50;99.90
8332;DHT22;4203;48.144;14.118;2023-11-21T14:23:46;8.50;99.90
8332;DHT22;4203;48.144;14.118;2023-11-21T14:26:14;8.50;99.90
8332;DHT22;4203;48.144;14.118;2023-11-21T14:28:42;8.50;99.90
8332;DHT22;4203;48.144;14.118;2023-11-21T14:31:10;8.50;99.90
8332;DHT22;4203;48.144;14.118;2023-11-21T14:33:43;8.40;99.90
8332;DHT22;4203;48.144;14.118;2023-11-21T14:36:10;8.40;99.90
8332;DHT22;4203;48.144;14.118;2023-11-21T14:38:38;8.40;99.90
8332;DHT22;4203;48.144;14.118;2023-11-21T14:41:07;8.40;99.90
8332;DHT22;4203;48.144;14.118;2023-11-21T14:43:36;8.30;99.90
8332;DHT22;4203;48.144;14.118;2023-11-21T14:46:05;8.30;99.90
8332;DHT22;4203;48.144;14.118;2023-11-21T14:48:35;8.30;99.90
8332;DHT22;4203;48.144;14.118;2023-11-21T14:51:09;8.30;99.90
8332;DHT22;4203;48.144;14.118;2023-11-21T14:53:53;8.20;99.90
8332;DHT22;4203;48.144;14.118;2023-11-21T14:56:22;8.20;99.90
8332;DHT22;4203;48.144;14.118;2023-11-21T14:58:53;8.20;99.90
8332;DHT22;4203;48.144;14.118;2023-11-21T15:01:22;8.20;99.90
8332;DHT22;4203;48.144;14.118;2023-11-21T15:04:02;8.20;99.90
8332;DHT22;4203;48.144;14.118;2023-11-21T15:06:31;8.10;99.90
8332;DHT22;4203;48.144;14.118;2023-11-21T15:08:58;8.10;99.90
8332;DHT22;4203;48.144;14.118;2023-11-21T15:11:44;8.10;99.90
8332;DHT22;4203;48.144;14.118;2023-11-21T15:14:13;8.00;99.90
8332;DHT22;4203;48.144;14.118;2023-11-21T15:16:46;8.00;99.90
8332;DHT22;4203;48.144;14.118;2023-11-21T15:19:17;8.00;99.90
8332;DHT22;4203;48.144;14.118;2023-11-21T15:21:51;7.90;99.90
8332;DHT22;4203;48.144;14.118;2023-11-21T15:24:18;7.90;99.90
8332;DHT22;4203;48.144;14.118;2023-11-21T15:26:46;7.90;99.90
8332;DHT22;4203;48.144;14.118;2023-11-21T15:29:14;7.90;99.90
8332;DHT22;4203;48.144;14.118;2023-11-21T15:31:41;7.90;99.90
8332;DHT22;4203;48.144;14.118;2023-11-21T15:34:14;7.90;99.90
8332;DHT22;4203;48.144;14.118;2023-11-21T15:36:41;7.90;99.90
8332;DHT22;4203;48.144;14.118;2023-11-21T15:39:09;7.90;99.90
8332;DHT22;4203;48.144;14.118;2023-11-21T15:41:37;7.90;99.90
8332;DHT22;4203;48.144;14.118;2023-11-21T15:44:07;7.90;99.90
8332;DHT22;4203;48.144;14.118;2023-11-21T15:46:37;7.80;99.90
8332;DHT22;4203;48.144;14.118;2023-11-21T15:49:07;7.70;99.90
8332;DHT22;4203;48.144;14.118;2023-11-21T15:51:38;7.70;99.90
8332;DHT22;4203;48.144;14.118;2023-11-21T15:54:06;7.60;99.90
8332;DHT22;4203;48.144;14.118;2023-11-21T15:56:34;7.50;99.90
8332;DHT22;4203;48.144;14.118;2023-11-21T15:59:02;7.50;99.90
8332;DHT22;4203;48.144;14.118;2023-11-21T16:01:32;7.40;99.90
8332;DHT22;4203;48.144;14.118;2023-11-21T16:04:00;7.40;99.90
8332;DHT22;4203;48.144;14.118;2023-11-21T16:06:28;7.40;99.90
8332;DHT22;4203;48.144;14.118;2023-11-21T16:08:56;7.40;99.90
8332;DHT22;4203;48.144;14.118;2023-11-21T16:11:25;7.40;99.90
8332;DHT22;4203;48.144;14.118;2023-11-21T16:13:52;7.30;99.90
8332;DHT22;4203;48.144;14.118;2023-11-21T16:16:23;7.30;99.90
8332;DHT22;4203;48.144;14.118;2023-11-21T16:18:52;7.30;99.90